createdAt,value
2018-10-09T00:00:21.609Z,81.75
2018-10-09T00:02:48.700Z,81.76
2018-10-09T00:05:15.733Z,81.24
2018-10-09T00:07:42.678Z,81.28
2018-10-09T00:10:09.645Z,80.85
2018-10-09T00:12:37.916Z,81.49
2018-10-09T00:15:04.940Z,80.87
2018-10-09T00:17:31.892Z,82.00
2018-10-09T00:19:58.832Z,82.11
2018-10-09T00:22:25.757Z,81.50
2018-10-09T00:24:52.684Z,81.73
2018-10-09T00:27:19.652Z,82.02
2018-10-09T00:29:46.605Z,82.16
2018-10-09T00:32:13.565Z,81.90
2018-10-09T00:34:40.509Z,82.31
2018-10-09T00:37:07.597Z,82.07
2018-10-09T00:39:34.569Z,81.43
2018-10-09T00:42:01.512Z,82.11
2018-10-09T00:44:28.460Z,82.27
2018-10-09T00:46:55.390Z,82.07
2018-10-09T00:49:22.329Z,82.20
2018-10-09T00:51:49.287Z,82.38
2018-10-09T00:54:16.425Z,83.07
2018-10-09T00:56:43.397Z,83.09
2018-10-09T00:59:10.376Z,82.84
2018-10-09T01:01:37.357Z,82.44
2018-10-09T01:04:04.285Z,82.49
2018-10-09T01:06:31.224Z,82.49
2018-10-09T01:08:58.202Z,82.39
2018-10-09T01:11:25.376Z,82.00
2018-10-09T01:13:53.014Z,82.67
2018-10-09T01:16:20.830Z,82.15
2018-10-09T01:18:47.768Z,82.67
2018-10-09T01:21:14.729Z,82.23
2018-10-09T01:23:41.664Z,82.75
2018-10-09T01:26:09.590Z,82.51
2018-10-09T01:28:36.506Z,83.01
2018-10-09T01:31:03.449Z,82.66
2018-10-09T01:33:30.509Z,83.48
2018-10-09T01:35:57.544Z,82.91
2018-10-09T01:38:24.468Z,83.15
2018-10-09T01:40:51.413Z,83.04
2018-10-09T01:43:18.353Z,83.38
2018-10-09T01:45:45.305Z,83.44
2018-10-09T01:48:12.340Z,82.74
2018-10-09T01:50:39.273Z,82.90
2018-10-09T01:53:06.199Z,82.88
2018-10-09T01:55:33.145Z,83.86
2018-10-09T01:58:00.121Z,83.43
2018-10-09T02:00:27.053Z,83.51
2018-10-09T02:02:53.995Z,83.85
2018-10-09T02:05:20.924Z,83.73
2018-10-09T02:07:47.948Z,83.48
2018-10-09T02:10:14.881Z,83.51
2018-10-09T02:12:41.830Z,83.82
2018-10-09T02:15:08.769Z,83.29
2018-10-09T02:17:35.741Z,84.15
2018-10-09T02:20:02.684Z,84.27
2018-10-09T02:22:29.616Z,83.69
2018-10-09T02:24:56.572Z,83.69
2018-10-09T02:27:23.508Z,84.33
2018-10-09T02:29:50.428Z,83.82
2018-10-09T02:32:17.377Z,84.36
2018-10-09T02:34:44.336Z,84.69
2018-10-09T02:37:11.273Z,84.18
2018-10-09T02:39:38.227Z,83.86
2018-10-09T02:42:05.285Z,83.89
2018-10-09T02:44:32.221Z,84.82
2018-10-09T02:46:59.180Z,84.29
2018-10-09T02:49:26.125Z,85.08
2018-10-09T02:51:53.080Z,85.73
2018-10-09T02:54:20.078Z,85.48
2018-10-09T02:56:47.068Z,85.41
2018-10-09T02:59:14.025Z,85.58
2018-10-09T03:01:40.960Z,84.89
2018-10-09T03:04:07.905Z,84.83
2018-10-09T03:06:34.844Z,85.44
2018-10-09T03:09:01.892Z,85.32
2018-10-09T03:11:28.865Z,85.21
2018-10-09T03:13:55.820Z,85.73
2018-10-09T03:16:22.747Z,85.25
2018-10-09T03:18:49.727Z,85.44
2018-10-09T03:21:16.650Z,85.70
2018-10-09T03:23:43.597Z,85.31
2018-10-09T03:26:10.560Z,85.85
2018-10-09T03:28:37.520Z,85.43
2018-10-09T03:31:04.502Z,85.60
2018-10-09T03:33:31.454Z,85.81
2018-10-09T03:35:58.409Z,85.10
2018-10-09T03:38:25.355Z,85.64
2018-10-09T03:40:52.303Z,85.01
2018-10-09T03:43:19.256Z,84.80
2018-10-09T03:45:46.200Z,85.06
2018-10-09T03:48:13.161Z,85.15
2018-10-09T03:50:40.098Z,85.13
2018-10-09T03:53:07.044Z,85.55
2018-10-09T03:55:33.989Z,86.33
2018-10-09T03:58:00.929Z,86.34
2018-10-09T04:00:27.898Z,85.93
2018-10-09T04:02:54.819Z,86.48
2018-10-09T04:05:21.797Z,86.71
2018-10-09T04:07:48.749Z,86.27
2018-10-09T04:10:15.717Z,85.90
2018-10-09T04:12:42.728Z,86.41
2018-10-09T04:15:10.151Z,86.63
2018-10-09T04:17:37.177Z,85.84
2018-10-09T04:20:05.375Z,86.52
2018-10-09T04:22:32.373Z,85.94
2018-10-09T04:24:59.457Z,86.84
2018-10-09T04:27:26.432Z,86.30
2018-10-09T04:29:53.432Z,86.12
2018-10-09T04:32:20.736Z,86.23
2018-10-09T04:34:47.908Z,86.57
2018-10-09T04:37:14.877Z,86.52
2018-10-09T04:39:41.841Z,86.99
2018-10-09T04:42:08.801Z,87.15
2018-10-09T04:44:35.789Z,86.92
2018-10-09T04:47:02.740Z,86.54
2018-10-09T04:49:36.501Z,86.69
2018-10-09T04:52:03.445Z,87.11
2018-10-09T04:54:30.397Z,86.89
2018-10-09T04:56:57.333Z,86.65
2018-10-09T04:59:24.284Z,87.20
2018-10-09T05:01:51.325Z,86.96
2018-10-09T05:04:18.281Z,87.43
2018-10-09T05:06:45.217Z,87.46
2018-10-09T05:09:12.269Z,87.06
2018-10-09T05:11:39.206Z,87.47
2018-10-09T05:14:06.230Z,86.82
2018-10-09T05:16:33.172Z,86.94
2018-10-09T05:19:00.123Z,87.52
2018-10-09T05:21:27.122Z,87.34
2018-10-09T05:23:57.985Z,87.19
2018-10-09T05:26:25.019Z,87.23
2018-10-09T05:28:52.001Z,87.13
2018-10-09T05:31:19.066Z,87.52
2018-10-09T05:33:45.986Z,88.03
2018-10-09T05:36:12.969Z,87.88
2018-10-09T05:38:39.961Z,87.78
2018-10-09T05:41:07.007Z,87.86
2018-10-09T05:43:33.991Z,87.78
2018-10-09T05:46:00.966Z,87.91
2018-10-09T05:48:27.917Z,88.01
2018-10-09T05:50:54.878Z,87.49
2018-10-09T05:53:21.833Z,87.36
2018-10-09T05:55:48.805Z,86.77
2018-10-09T05:58:15.766Z,87.33
2018-10-09T06:00:42.756Z,86.47
2018-10-09T06:03:09.726Z,86.43
2018-10-09T06:05:36.693Z,87.16
2018-10-09T06:08:03.663Z,86.28
2018-10-09T06:10:30.629Z,86.52
2018-10-09T06:12:57.591Z,85.96
2018-10-09T06:15:24.579Z,85.85
2018-10-09T06:17:51.501Z,85.58
2018-10-09T06:20:25.214Z,85.42
2018-10-09T06:22:52.497Z,86.04
2018-10-09T06:25:19.473Z,85.93
2018-10-09T06:27:46.434Z,85.86
2018-10-09T06:30:13.468Z,85.27
2018-10-09T06:32:40.445Z,85.26
2018-10-09T06:35:07.421Z,86.19
2018-10-09T06:37:34.384Z,85.82
2018-10-09T06:40:01.350Z,85.52
2018-10-09T06:42:28.323Z,85.33
2018-10-09T06:44:55.305Z,85.22
2018-10-09T06:47:22.326Z,84.99
2018-10-09T06:49:49.250Z,85.46
2018-10-09T06:52:16.211Z,85.10
2018-10-09T06:54:43.281Z,85.25
2018-10-09T06:57:10.142Z,85.23
2018-10-09T06:59:43.942Z,84.95
2018-10-09T07:02:10.905Z,84.18
2018-10-09T07:04:37.849Z,84.92
2018-10-09T07:07:05.150Z,84.19
2018-10-09T07:09:32.126Z,84.00
2018-10-09T07:11:59.107Z,83.94
2018-10-09T07:14:26.069Z,84.37
2018-10-09T07:16:53.039Z,83.88
2018-10-09T07:19:19.987Z,83.45
2018-10-09T07:21:46.962Z,83.23
2018-10-09T07:24:13.935Z,83.75
2018-10-09T07:26:40.876Z,83.14
2018-10-09T07:29:07.853Z,83.09
2018-10-09T07:31:34.803Z,82.46
2018-10-09T07:34:01.782Z,82.46
2018-10-09T07:36:28.745Z,81.85
2018-10-09T07:38:55.718Z,81.23
2018-10-09T07:41:22.673Z,81.11
2018-10-09T07:43:49.666Z,81.26
2018-10-09T07:46:16.633Z,81.45
2018-10-09T07:48:43.589Z,80.71
2018-10-09T07:51:10.579Z,80.31
2018-10-09T07:53:37.555Z,80.14
2018-10-09T07:56:04.520Z,80.69
2018-10-09T07:58:31.508Z,80.00
2018-10-09T08:00:58.459Z,80.67
2018-10-09T08:03:25.421Z,80.49
2018-10-09T08:05:52.408Z,80.82
2018-10-09T08:08:19.362Z,81.03
2018-10-09T08:10:46.466Z,81.04
2018-10-09T08:13:13.382Z,80.83
2018-10-09T08:15:40.345Z,80.99
2018-10-09T08:18:07.273Z,81.29
2018-10-09T08:20:34.217Z,81.19
2018-10-09T08:23:01.262Z,81.38
2018-10-09T08:25:28.530Z,81.17
2018-10-09T08:27:55.570Z,80.82
2018-10-09T08:30:22.483Z,80.97
2018-10-09T08:32:49.454Z,80.94
2018-10-09T08:35:16.572Z,80.53
2018-10-09T08:37:43.594Z,80.03
2018-10-09T08:40:10.580Z,79.97
2018-10-09T08:42:37.542Z,80.22
2018-10-09T08:45:04.898Z,80.19
2018-10-09T08:47:31.965Z,79.96
2018-10-09T08:49:58.945Z,79.53
2018-10-09T08:52:25.902Z,79.18
2018-10-09T08:54:52.858Z,79.59
2018-10-09T08:57:19.817Z,78.85
2018-10-09T08:59:46.833Z,78.47
2018-10-09T09:02:13.856Z,78.90
2018-10-09T09:04:40.795Z,78.85
2018-10-09T09:07:07.749Z,78.76
2018-10-09T09:09:34.754Z,78.33
2018-10-09T09:12:01.678Z,77.79
2018-10-09T09:14:28.626Z,78.02
2018-10-09T09:16:55.607Z,77.65
2018-10-09T09:19:22.590Z,77.59
2018-10-09T09:21:49.562Z,76.73
2018-10-09T09:24:16.509Z,77.22
2018-10-09T09:26:43.584Z,77.08
2018-10-09T09:29:10.455Z,77.13
2018-10-09T09:31:37.423Z,76.22
2018-10-09T09:34:04.399Z,75.66
2018-10-09T09:36:31.373Z,75.47
2018-10-09T09:38:58.323Z,75.24
2018-10-09T09:41:25.342Z,74.85
2018-10-09T09:43:52.331Z,73.74
2018-10-09T09:46:19.371Z,74.25
2018-10-09T09:48:46.273Z,74.19
2018-10-09T09:51:13.233Z,74.84
2018-10-09T09:53:40.249Z,75.42
2018-10-09T09:56:07.265Z,75.18
2018-10-09T09:58:34.439Z,76.07
2018-10-09T10:01:06.975Z,76.97
2018-10-09T10:03:34.075Z,76.57
2018-10-09T10:06:01.042Z,76.68
2018-10-09T10:08:28.018Z,77.05
2018-10-09T10:10:54.978Z,77.26
2018-10-09T10:13:22.001Z,77.37
2018-10-09T10:15:49.075Z,77.24
2018-10-09T10:18:15.922Z,77.19
2018-10-09T10:20:42.904Z,77.38
2018-10-09T10:23:09.858Z,77.04
2018-10-09T10:25:36.807Z,76.55
2018-10-09T10:28:03.817Z,76.16
2018-10-09T10:30:30.765Z,76.29
2018-10-09T10:32:57.727Z,75.74
2018-10-09T10:35:24.705Z,74.84
2018-10-09T10:37:51.660Z,74.33
2018-10-09T10:40:18.646Z,74.05
2018-10-09T10:42:45.593Z,73.90
2018-10-09T10:45:12.760Z,73.48
2018-10-09T10:47:39.756Z,73.49
2018-10-09T10:50:06.759Z,72.32
2018-10-09T10:52:33.833Z,72.28
2018-10-09T10:55:00.852Z,71.03
2018-10-09T10:57:27.758Z,71.16
2018-10-09T10:59:54.769Z,70.03
2018-10-09T11:02:21.834Z,69.35
2018-10-09T11:04:49.121Z,68.92
2018-10-09T11:07:16.086Z,69.02
2018-10-09T11:09:43.098Z,69.18
2018-10-09T11:12:10.374Z,69.54
2018-10-09T11:14:37.406Z,70.13
2018-10-09T11:17:04.354Z,69.74
2018-10-09T11:19:31.314Z,69.96
2018-10-09T11:21:58.273Z,69.15
2018-10-09T11:24:25.252Z,68.50
2018-10-09T11:26:53.414Z,70.23
2018-10-09T11:29:20.399Z,68.84
2018-10-09T11:31:47.840Z,68.24
2018-10-09T11:34:14.833Z,68.78
2018-10-09T11:36:41.817Z,67.68
2018-10-09T11:39:09.198Z,67.42
2018-10-09T11:41:36.222Z,67.47
2018-10-09T11:44:03.405Z,67.01
2018-10-09T11:46:30.373Z,68.27
2018-10-09T11:48:57.377Z,67.37
2018-10-09T11:51:24.379Z,65.49
2018-10-09T11:53:51.354Z,64.26
2018-10-09T11:56:18.321Z,64.91
2018-10-09T11:58:45.352Z,64.45
2018-10-09T12:01:12.310Z,65.15
2018-10-09T12:03:39.348Z,64.36
2018-10-09T12:06:06.373Z,65.44
2018-10-09T12:08:33.356Z,63.29
2018-10-09T12:11:00.855Z,63.69
2018-10-09T12:13:27.847Z,63.44
2018-10-09T12:15:54.887Z,63.81
2018-10-09T12:18:21.808Z,63.35
2018-10-09T12:20:48.791Z,63.09
2018-10-09T12:23:15.782Z,61.55
2018-10-09T12:25:42.753Z,62.13
2018-10-09T12:28:09.807Z,62.12
2018-10-09T12:30:36.788Z,61.33
2018-10-09T12:33:03.845Z,60.47
2018-10-09T12:35:30.746Z,61.70
2018-10-09T12:37:57.726Z,61.31
2018-10-09T12:40:24.716Z,62.21
2018-10-09T12:42:51.725Z,62.88
2018-10-09T12:45:18.935Z,61.95
2018-10-09T12:47:45.923Z,61.14
2018-10-09T12:50:12.906Z,62.68
2018-10-09T12:52:39.865Z,61.13
2018-10-09T12:55:07.322Z,59.85
2018-10-09T12:57:34.323Z,60.09
2018-10-09T13:00:01.320Z,60.45
2018-10-09T13:02:28.341Z,59.82
2018-10-09T13:04:55.341Z,59.44
2018-10-09T13:07:22.893Z,60.22
2018-10-09T13:09:49.861Z,61.02
2018-10-09T13:12:16.866Z,60.87
2018-10-09T13:14:43.847Z,59.81
2018-10-09T13:17:10.857Z,58.62
2018-10-09T13:19:37.817Z,60.36
2018-10-09T13:22:05.042Z,59.64
2018-10-09T13:24:31.779Z,59.95
2018-10-09T13:26:58.846Z,59.40
2018-10-09T13:29:25.789Z,59.45
2018-10-09T13:31:52.761Z,58.90
2018-10-09T13:34:19.916Z,58.52
2018-10-09T13:36:46.887Z,59.25
2018-10-09T13:39:13.856Z,59.45
2018-10-09T13:41:40.839Z,59.50
2018-10-09T13:44:07.932Z,59.11
2018-10-09T13:46:36.105Z,60.53
2018-10-09T13:49:03.082Z,60.01
2018-10-09T13:51:30.028Z,59.61
2018-10-09T13:53:57.021Z,59.82
2018-10-09T13:56:24.777Z,59.69
2018-10-09T13:58:51.735Z,59.95
2018-10-09T14:01:18.711Z,59.24
2018-10-09T14:03:45.711Z,59.98
2018-10-09T14:06:12.737Z,58.07
2018-10-09T14:08:39.690Z,58.72
2018-10-09T14:11:06.980Z,58.63
2018-10-09T14:13:33.958Z,58.54
2018-10-09T14:16:00.942Z,58.80
2018-10-09T14:18:27.917Z,58.11
2018-10-09T14:20:54.866Z,57.55
2018-10-09T14:23:21.808Z,57.70
2018-10-09T14:25:48.809Z,58.61
2018-10-09T14:28:15.757Z,58.20
2018-10-09T14:30:42.710Z,59.00
2018-10-09T14:33:09.666Z,57.99
2018-10-09T14:35:36.624Z,57.32
2018-10-09T14:38:03.578Z,54.43
2018-10-09T14:40:30.617Z,55.18
2018-10-09T14:42:57.574Z,54.12
2018-10-09T14:45:24.562Z,54.35
2018-10-09T14:47:51.493Z,54.62
2018-10-09T14:50:18.473Z,54.59
2018-10-09T14:52:45.419Z,54.83
2018-10-09T14:55:12.394Z,53.91
2018-10-09T14:57:39.391Z,54.65
2018-10-09T15:00:07.740Z,53.62
2018-10-09T15:02:34.697Z,52.52
2018-10-09T15:05:01.663Z,53.92
2018-10-09T15:07:28.621Z,53.75
2018-10-09T15:09:55.593Z,51.74
2018-10-09T15:12:22.551Z,52.43
2018-10-09T15:14:49.498Z,54.15
2018-10-09T15:17:16.474Z,54.79
2018-10-09T15:19:43.417Z,54.86
2018-10-09T15:22:10.390Z,54.48
2018-10-09T15:24:37.321Z,52.75
2018-10-09T15:27:04.282Z,53.98
2018-10-09T15:29:31.219Z,53.73
2018-10-09T15:31:58.166Z,53.84
2018-10-09T15:34:25.097Z,54.27
2018-10-09T15:36:52.064Z,54.97
2018-10-09T15:39:19.008Z,54.90
2018-10-09T15:41:46.054Z,55.07
2018-10-09T15:44:13.002Z,55.49
2018-10-09T15:46:40.008Z,55.43
2018-10-09T15:49:07.039Z,57.33
2018-10-09T15:51:34.002Z,57.86
2018-10-09T15:54:01.198Z,58.44
2018-10-09T15:56:29.017Z,58.44
2018-10-09T15:58:55.946Z,58.86
2018-10-09T16:01:22.960Z,58.36
2018-10-09T16:03:49.919Z,58.51
2018-10-09T16:06:16.897Z,59.51
2018-10-09T16:08:43.868Z,60.45
2018-10-09T16:11:10.828Z,60.66
2018-10-09T16:13:37.793Z,60.16
2018-10-09T16:16:04.744Z,60.56
2018-10-09T16:18:31.721Z,60.85
2018-10-09T16:20:58.674Z,60.49
2018-10-09T16:23:25.621Z,60.28
2018-10-09T16:25:52.581Z,61.17
2018-10-09T16:28:19.549Z,61.46
2018-10-09T16:30:46.518Z,61.22
2018-10-09T16:33:13.490Z,61.26
2018-10-09T16:35:40.447Z,61.74
2018-10-09T16:38:08.031Z,61.12
2018-10-09T16:40:36.829Z,61.88
2018-10-09T16:43:03.821Z,61.73
2018-10-09T16:45:30.763Z,62.10
2018-10-09T16:47:57.741Z,62.17
2018-10-09T16:50:24.682Z,62.25
2018-10-09T16:52:52.907Z,62.09
2018-10-09T16:55:19.862Z,62.10
2018-10-09T16:57:47.675Z,62.13
2018-10-09T17:00:15.151Z,62.32
2018-10-09T17:02:42.710Z,62.44
2018-10-09T17:05:09.653Z,62.20
2018-10-09T17:07:36.633Z,62.69
2018-10-09T17:10:03.761Z,62.82
2018-10-09T17:12:30.708Z,62.93
2018-10-09T17:14:57.653Z,63.41
2018-10-09T17:17:24.670Z,63.74
2018-10-09T17:19:51.740Z,65.15
2018-10-09T17:22:18.600Z,66.34
2018-10-09T17:24:45.517Z,66.97
2018-10-09T17:27:12.474Z,67.08
2018-10-09T17:29:39.409Z,67.59
2018-10-09T17:32:06.381Z,68.95
2018-10-09T17:34:33.342Z,69.57
2018-10-09T17:37:00.285Z,69.39
2018-10-09T17:39:27.234Z,69.12
2018-10-09T17:41:54.178Z,68.56
2018-10-09T17:44:21.170Z,68.75
2018-10-09T17:46:48.226Z,68.68
2018-10-09T17:49:15.116Z,69.14
2018-10-09T17:51:42.041Z,68.66
2018-10-09T17:54:08.993Z,69.00
2018-10-09T17:56:35.935Z,69.33
2018-10-09T17:59:02.910Z,69.80
2018-10-09T18:01:29.861Z,70.25
2018-10-09T18:03:56.797Z,70.48
2018-10-09T18:06:23.762Z,70.49
2018-10-09T18:08:50.744Z,71.03
2018-10-09T18:11:17.733Z,71.43
2018-10-09T18:13:44.641Z,71.52
2018-10-09T18:16:11.590Z,71.25
2018-10-09T18:18:38.539Z,70.91
2018-10-09T18:21:05.515Z,71.09
2018-10-09T18:23:32.445Z,71.15
2018-10-09T18:26:00.021Z,71.10
2018-10-09T18:28:26.982Z,71.03
2018-10-09T18:30:53.941Z,71.51
2018-10-09T18:33:21.181Z,72.17
2018-10-09T18:35:48.001Z,73.26
2018-10-09T18:38:14.989Z,74.14
2018-10-09T18:40:42.048Z,73.91
2018-10-09T18:43:08.918Z,73.79
2018-10-09T18:45:35.893Z,73.86
2018-10-09T18:48:02.829Z,73.45
2018-10-09T18:50:29.814Z,73.70
2018-10-09T18:52:56.772Z,74.08
2018-10-09T18:55:23.738Z,73.40
2018-10-09T18:57:50.686Z,73.15
2018-10-09T19:00:17.689Z,73.34
2018-10-09T19:02:44.653Z,73.71
2018-10-09T19:05:11.625Z,73.79
2018-10-09T19:07:39.034Z,74.21
2018-10-09T19:10:06.322Z,75.30
2018-10-09T19:12:33.295Z,76.29
2018-10-09T19:15:00.263Z,76.81
2018-10-09T19:17:27.265Z,76.70
2018-10-09T19:19:54.678Z,76.29
2018-10-09T19:22:21.677Z,76.14
2018-10-09T19:24:48.714Z,76.08
2018-10-09T19:27:15.786Z,76.25
2018-10-09T19:29:42.923Z,76.24
2018-10-09T19:32:10.620Z,76.28
2018-10-09T19:34:37.560Z,77.33
2018-10-09T19:37:04.649Z,77.97
2018-10-09T19:39:31.659Z,78.06
2018-10-09T19:42:00.318Z,78.82
2018-10-09T19:44:27.286Z,78.81
2018-10-09T19:46:54.366Z,78.53
2018-10-09T19:49:21.305Z,78.18
2018-10-09T19:51:48.274Z,79.57
2018-10-09T19:54:15.342Z,79.65
2018-10-09T19:56:42.444Z,79.87
2018-10-09T19:59:09.670Z,79.36
2018-10-09T20:01:36.704Z,79.28
2018-10-09T20:04:03.660Z,79.17
2018-10-09T20:06:32.822Z,79.92
2018-10-09T20:08:59.785Z,79.13
2018-10-09T20:11:26.821Z,79.77
2018-10-09T20:13:53.843Z,79.80
2018-10-09T20:16:21.131Z,80.11
2018-10-09T20:18:48.455Z,79.87
2018-10-09T20:21:15.662Z,79.99
2018-10-09T20:23:42.649Z,79.74
2018-10-09T20:26:09.598Z,79.64
2018-10-09T20:28:37.412Z,79.81
2018-10-09T20:31:04.412Z,80.09
2018-10-09T20:33:31.906Z,79.90
2018-10-09T20:35:58.948Z,80.18
2018-10-09T20:38:25.954Z,80.08
2018-10-09T20:40:52.925Z,80.33
2018-10-09T20:43:19.926Z,80.47
2018-10-09T20:45:47.077Z,80.36
2018-10-09T20:48:14.217Z,81.18
2018-10-09T20:50:41.165Z,80.71
2018-10-09T20:53:08.126Z,81.00
2018-10-09T20:55:35.376Z,81.60
2018-10-09T20:58:02.378Z,81.57
2018-10-09T21:00:29.341Z,82.43
2018-10-09T21:02:56.681Z,82.08
2018-10-09T21:05:24.076Z,82.29
2018-10-09T21:07:51.024Z,81.25
2018-10-09T21:10:18.014Z,81.53
2018-10-09T21:12:44.957Z,81.88
2018-10-09T21:15:11.923Z,82.83
2018-10-09T21:17:38.945Z,81.74
2018-10-09T21:20:06.260Z,82.25
2018-10-09T21:22:33.206Z,82.45
2018-10-09T21:25:00.201Z,82.40
2018-10-09T21:27:27.150Z,80.64
2018-10-09T21:29:54.200Z,80.90
2018-10-09T21:32:21.065Z,80.76
2018-10-09T21:34:48.058Z,80.56
2018-10-09T21:37:15.015Z,79.81
2018-10-09T21:39:41.989Z,80.58
2018-10-09T21:42:08.963Z,80.09
2018-10-09T21:44:35.894Z,80.39
2018-10-09T21:47:02.885Z,80.67
2018-10-09T21:49:29.824Z,80.21
2018-10-09T21:51:56.778Z,80.72
2018-10-09T21:54:23.733Z,80.34
2018-10-09T21:56:50.714Z,80.67
2018-10-09T21:59:17.685Z,80.03
2018-10-09T22:01:44.711Z,79.97
2018-10-09T22:04:11.749Z,80.28
2018-10-09T22:06:38.746Z,79.93
2018-10-09T22:09:07.001Z,80.39
2018-10-09T22:11:34.005Z,80.32
2018-10-09T22:14:00.974Z,81.65
2018-10-09T22:16:27.925Z,81.00
2018-10-09T22:18:54.985Z,81.40
2018-10-09T22:21:22.130Z,80.47
2018-10-09T22:23:49.085Z,80.61
2018-10-09T22:26:16.230Z,80.84
2018-10-09T22:28:43.346Z,80.68
2018-10-09T22:31:10.444Z,81.39
2018-10-09T22:33:37.424Z,81.81
2018-10-09T22:36:04.625Z,83.06
2018-10-09T22:38:31.785Z,83.67
2018-10-09T22:40:59.017Z,82.93
2018-10-09T22:43:26.114Z,83.29
2018-10-09T22:45:53.225Z,83.10
2018-10-09T22:48:20.297Z,83.08
2018-10-09T22:50:47.398Z,83.28
2018-10-09T22:53:14.634Z,83.44
2018-10-09T22:55:41.769Z,83.17
2018-10-09T22:58:08.972Z,84.26
2018-10-09T23:00:36.015Z,84.40
2018-10-09T23:03:03.126Z,84.07
2018-10-09T23:05:30.099Z,83.95
2018-10-09T23:07:57.225Z,84.16
2018-10-09T23:10:24.461Z,85.47
2018-10-09T23:12:51.529Z,85.35
2018-10-09T23:15:18.624Z,84.68
2018-10-09T23:17:45.777Z,84.89
2018-10-09T23:20:14.345Z,85.28
2018-10-09T23:22:41.375Z,85.75
2018-10-09T23:25:08.725Z,86.19
2018-10-09T23:27:35.845Z,86.45
2018-10-09T23:30:03.508Z,85.47
2018-10-09T23:32:30.813Z,84.98
2018-10-09T23:34:57.996Z,85.30
2018-10-09T23:37:25.618Z,84.39
2018-10-09T23:39:52.884Z,84.53
2018-10-09T23:42:20.004Z,84.24
2018-10-09T23:44:47.226Z,84.66
2018-10-09T23:47:14.183Z,85.42
2018-10-09T23:49:41.653Z,85.50
2018-10-09T23:52:08.948Z,85.39
2018-10-09T23:54:36.113Z,85.17
2018-10-09T23:57:03.218Z,84.88
2018-10-09T23:59:30.410Z,84.80
